Adler, Russia
Current Conditions -  °F | °C
As of 4:30 PM on Friday 24 Oct 2014 (Local Time) from URSS Reporting Station
Broken Clouds Broken Clouds  
Wind Chill: 68°   Ceiling: 12000
Heat Index: 68°   Visibility: 6mi
Dew Point: 52°   Wind: 4mph
Humidity: 56%   Direction: 60°ENE
Pressure: 29.91"   Gusts: NA
Location:  43.43°N, 39.92°E
Report Text: URSS 241330Z 06002MPS 9999 BKN120 20/11 Q1013 NOSIG RMKR06/07004MPS QFE759 02000070 06000070
Loading
Personal Weather Stations






























Interactive Weather Map
Tropical Storm Tracking
New forecast layout! Learn more

10-Day Weather Forecast

Advertisements
Track Severe Weather on mobile